Stephenville, Canada
Current Conditions -  °F | °C
As of 4:00 AM on Friday 28 Nov 2014 (Local Time) from CYJT Reporting Station
Clear Clear  
Wind Chill: -8°   Ceiling: Unl
Heat Index: -2°   Visibility: 15mi
Dew Point: -5°   Wind: 14mph
Humidity: 80%   Direction: 340°NNW
Pressure: 29.76"   Gusts: 21mph
Location:  48.55°N, 58.58°W
Report Text: CYJT 280700Z 34012G18KT 15SM SKC M02/M05 A2976 RMK SLP077
Loading
Personal Weather Stations






























Interactive Weather Map New forecast layout! Learn more

10-Day Weather Forecast

Advertisements
Track Severe Weather on mobile